createdAt,value
2023-03-16T00:02:10.204Z,99398.63
2023-03-16T00:04:37.799Z,99396.94
2023-03-16T00:07:06.314Z,99395.19
2023-03-16T00:09:33.047Z,99393.47
2023-03-16T00:12:03.310Z,99389.22
2023-03-16T00:14:30.749Z,99383.19
2023-03-16T00:16:57.526Z,99378.94
2023-03-16T00:19:24.537Z,99378.06
2023-03-16T00:21:51.897Z,99384.94
2023-03-16T00:24:19.483Z,99364.31
2023-03-16T00:26:47.476Z,99360.91
2023-03-16T00:29:14.785Z,99360.91
2023-03-16T00:31:44.132Z,99354.06
2023-03-16T00:34:12.356Z,99348.91
2023-03-16T00:36:39.046Z,99343.75
2023-03-16T00:39:07.008Z,99340.34
2023-03-16T00:41:38.147Z,99338.59
2023-03-16T00:44:05.769Z,99328.31
2023-03-16T00:46:32.752Z,99331.75
2023-03-16T00:48:59.263Z,99343.75
2023-03-16T00:51:25.846Z,99322.31
2023-03-16T00:53:52.403Z,99324.88
2023-03-16T00:56:19.133Z,99317.16
2023-03-16T00:58:45.750Z,99309.44
2023-03-16T01:01:16.271Z,99309.44
2023-03-16T01:03:43.329Z,99303.44
2023-03-16T01:06:13.498Z,99300.84
2023-03-16T01:08:42.030Z,99295.69
2023-03-16T01:11:11.987Z,99284.53
2023-03-16T01:13:39.655Z,99272.53
2023-03-16T01:16:07.821Z,99284.56
2023-03-16T01:18:34.704Z,99275.09
2023-03-16T01:21:03.683Z,99254.50
2023-03-16T01:23:31.445Z,99275.97
2023-03-16T01:25:59.515Z,99261.38
2023-03-16T01:28:29.067Z,99249.38
2023-03-16T01:31:02.054Z,99244.22
2023-03-16T01:33:28.883Z,99241.63
2023-03-16T01:35:57.110Z,99235.63
2023-03-16T01:38:24.491Z,99242.47
2023-03-16T01:40:52.342Z,99237.31
2023-03-16T01:43:22.014Z,99236.47
2023-03-16T01:46:15.506Z,99232.16
2023-03-16T01:48:58.530Z,99235.59
2023-03-16T01:54:07.980Z,99218.28
2023-03-16T01:56:41.843Z,99217.47
2023-03-16T01:59:14.300Z,99217.47
2023-03-16T02:01:41.223Z,99204.63
2023-03-16T02:04:23.836Z,99204.63
2023-03-16T02:06:52.016Z,99206.34
2023-03-16T02:09:19.431Z,99207.19
2023-03-16T02:11:46.918Z,99210.59
2023-03-16T02:14:14.200Z,99201.13
2023-03-16T02:16:42.043Z,99200.25
2023-03-16T02:19:14.015Z,99192.53
2023-03-16T02:21:54.660Z,99186.53
2023-03-16T02:24:21.784Z,99180.50
2023-03-16T02:26:55.169Z,99193.38
2023-03-16T02:31:59.998Z,99171.00
2023-03-16T02:34:27.892Z,99170.13
2023-03-16T02:36:55.809Z,99172.75
2023-03-16T02:39:22.356Z,99159.81
2023-03-16T02:41:48.951Z,99158.09
2023-03-16T02:44:27.712Z,99152.88
2023-03-16T02:47:00.016Z,99153.75
2023-03-16T02:49:34.093Z,99147.72
2023-03-16T02:52:00.644Z,99160.59
2023-03-16T02:54:27.232Z,99151.09
2023-03-16T02:56:53.762Z,99140.78
2023-03-16T02:59:20.436Z,99139.06
2023-03-16T03:01:49.282Z,99137.34
2023-03-16T03:04:16.185Z,99139.88
2023-03-16T03:06:42.837Z,99133.91
2023-03-16T03:09:11.764Z,99128.69
2023-03-16T03:11:38.762Z,99138.16
2023-03-16T03:14:05.419Z,99128.63
2023-03-16T03:16:32.125Z,99130.38
2023-03-16T03:18:59.359Z,99135.50
2023-03-16T03:21:25.934Z,99136.28
2023-03-16T03:23:52.722Z,99133.72
2023-03-16T03:26:20.142Z,99121.69
2023-03-16T03:28:46.979Z,99133.69
2023-03-16T03:31:20.761Z,99128.53
2023-03-16T03:33:47.871Z,99126.75
2023-03-16T03:36:14.776Z,99122.47
2023-03-16T03:38:41.574Z,99118.13
2023-03-16T03:41:08.202Z,99128.44
2023-03-16T03:43:35.385Z,99117.22
2023-03-16T03:46:03.757Z,99118.03
2023-03-16T03:48:30.660Z,99105.97
2023-03-16T03:50:57.462Z,99107.66
2023-03-16T03:53:23.992Z,99111.09
2023-03-16T03:55:50.741Z,99102.50
2023-03-16T03:58:17.326Z,99111.94
2023-03-16T04:00:43.862Z,99106.81
2023-03-16T04:03:10.677Z,99105.94
2023-03-16T04:05:37.495Z,99106.75
2023-03-16T04:08:04.340Z,99101.56
2023-03-16T04:10:31.319Z,99096.38
2023-03-16T04:12:59.504Z,99112.69
2023-03-16T04:15:26.610Z,99102.38
2023-03-16T04:17:53.199Z,99103.22
2023-03-16T04:20:20.118Z,99109.19
2023-03-16T04:22:47.416Z,99095.44
2023-03-16T04:25:16.266Z,99097.16
2023-03-16T04:27:43.851Z,99098.00
2023-03-16T04:30:15.709Z,99091.97
2023-03-16T04:32:42.337Z,99087.63
2023-03-16T04:35:10.148Z,99086.72
2023-03-16T04:37:36.816Z,99071.28
2023-03-16T04:40:11.111Z,99076.44
2023-03-16T04:42:38.259Z,99064.34
2023-03-16T04:45:05.215Z,99066.91
2023-03-16T04:47:33.917Z,99067.81
2023-03-16T04:50:02.635Z,99072.97
2023-03-16T04:52:29.215Z,99070.38
2023-03-16T04:54:55.752Z,99062.63
2023-03-16T04:57:22.660Z,99054.88
2023-03-16T04:59:49.598Z,99064.28
2023-03-16T05:02:17.647Z,99060.84
2023-03-16T05:04:44.218Z,99058.28
2023-03-16T05:07:11.564Z,99052.34
2023-03-16T05:09:38.118Z,99054.81
2023-03-16T05:12:04.694Z,99049.63
2023-03-16T05:14:31.243Z,99047.91
2023-03-16T05:16:57.827Z,99042.72
2023-03-16T05:19:24.682Z,99044.44
2023-03-16T05:21:51.226Z,99047.00
2023-03-16T05:24:18.146Z,99039.22
2023-03-16T05:26:44.686Z,99028.00
2023-03-16T05:29:11.659Z,99038.31
2023-03-16T05:31:38.525Z,99036.53
2023-03-16T05:34:05.139Z,99043.44
2023-03-16T05:36:31.763Z,99049.44
2023-03-16T05:38:59.559Z,99041.72
2023-03-16T05:41:26.577Z,99046.84
2023-03-16T05:43:53.176Z,99046.81
2023-03-16T05:46:20.948Z,99046.94
2023-03-16T05:48:47.574Z,99058.09
2023-03-16T05:51:14.296Z,99048.53
2023-03-16T05:53:41.000Z,99048.53
2023-03-16T05:56:07.856Z,99056.34
2023-03-16T05:58:34.396Z,99055.41
2023-03-16T06:01:02.124Z,99055.44
2023-03-16T06:03:28.928Z,99053.66
2023-03-16T06:05:55.486Z,99054.50
2023-03-16T06:08:22.186Z,99053.63
2023-03-16T06:10:48.967Z,99055.34
2023-03-16T06:13:15.553Z,99054.47
2023-03-16T06:15:42.162Z,99054.44
2023-03-16T06:18:08.689Z,99057.00
2023-03-16T06:20:35.570Z,99059.59
2023-03-16T06:23:02.084Z,99060.41
2023-03-16T06:25:28.586Z,99053.50
2023-03-16T06:27:55.231Z,99043.19
2023-03-16T06:30:22.030Z,99039.78
2023-03-16T06:32:48.693Z,99046.66
2023-03-16T06:35:15.351Z,99038.00
2023-03-16T06:37:42.034Z,99035.41
2023-03-16T06:40:09.893Z,99039.72
2023-03-16T06:42:36.487Z,99046.59
2023-03-16T06:45:03.308Z,99044.81
2023-03-16T06:47:29.911Z,99044.00
2023-03-16T06:49:56.466Z,99042.19
2023-03-16T06:52:23.137Z,99036.22
2023-03-16T06:54:49.869Z,99035.31
2023-03-16T06:57:16.684Z,99031.03
2023-03-16T06:59:43.287Z,99027.56
2023-03-16T07:02:13.824Z,99018.91
2023-03-16T07:04:41.850Z,99018.03
2023-03-16T07:07:09.236Z,99015.47
2023-03-16T07:09:39.140Z,99024.03
2023-03-16T07:12:07.134Z,99005.09
2023-03-16T07:14:33.694Z,99001.66
2023-03-16T07:17:00.305Z,99010.22
2023-03-16T07:19:26.994Z,99013.69
2023-03-16T07:21:54.032Z,99018.88
2023-03-16T07:24:21.056Z,99019.66
2023-03-16T07:26:47.646Z,99011.91
2023-03-16T07:29:14.458Z,99006.75
2023-03-16T07:31:41.052Z,99005.00
2023-03-16T07:34:07.956Z,99011.00
2023-03-16T07:36:34.616Z,99016.97
2023-03-16T07:39:01.420Z,99020.38
2023-03-16T07:41:28.131Z,99026.34
2023-03-16T07:43:55.644Z,99034.09
2023-03-16T07:46:22.386Z,99035.78
2023-03-16T07:48:49.008Z,99040.94
2023-03-16T07:51:15.664Z,99051.31
2023-03-16T07:53:42.397Z,99042.63
2023-03-16T07:56:09.320Z,99041.72
2023-03-16T07:58:35.976Z,99044.31
2023-03-16T08:01:02.542Z,99052.94
2023-03-16T08:03:30.040Z,99054.66
2023-03-16T08:05:56.706Z,99043.44
2023-03-16T08:08:23.751Z,99043.41
2023-03-16T08:10:52.753Z,99044.28
2023-03-16T08:13:22.426Z,99052.81
2023-03-16T08:15:55.969Z,99051.06
2023-03-16T08:18:23.898Z,99046.81
2023-03-16T08:20:50.870Z,99050.25
2023-03-16T08:23:17.465Z,99037.25
2023-03-16T08:25:44.036Z,99041.53
2023-03-16T08:28:12.705Z,99036.31
2023-03-16T08:30:45.925Z,99038.88
2023-03-16T08:33:12.963Z,99045.69
2023-03-16T08:35:44.777Z,99045.69
2023-03-16T08:38:12.538Z,99039.63
2023-03-16T08:40:42.155Z,99041.34
2023-03-16T08:43:08.982Z,99039.59
2023-03-16T08:45:35.594Z,99032.59
2023-03-16T08:48:02.119Z,99036.88
2023-03-16T08:50:28.913Z,99033.28
2023-03-16T08:52:55.661Z,99031.53
2023-03-16T08:55:22.340Z,99026.25
2023-03-16T08:57:49.714Z,99039.09
2023-03-16T09:00:17.924Z,99044.25
2023-03-16T09:02:44.622Z,99030.31
2023-03-16T09:05:14.952Z,99034.41
2023-03-16T09:07:42.512Z,99025.56
2023-03-16T09:10:13.337Z,99021.13
2023-03-16T09:12:40.961Z,99023.56
2023-03-16T09:15:10.169Z,99023.59
2023-03-16T09:17:36.812Z,99030.44
2023-03-16T09:20:21.182Z,99025.97
2023-03-16T09:22:48.737Z,99030.38
2023-03-16T09:25:15.574Z,99017.34
2023-03-16T09:27:42.721Z,99024.22
2023-03-16T09:30:10.452Z,99030.19
2023-03-16T09:32:37.476Z,99035.94
2023-03-16T09:35:06.333Z,99038.19
2023-03-16T09:37:44.611Z,99035.41
2023-03-16T09:40:23.765Z,99035.41
2023-03-16T09:43:02.228Z,99032.69
2023-03-16T09:45:58.646Z,99030.94
2023-03-16T09:48:29.684Z,99036.84
2023-03-16T09:50:56.891Z,99033.59
2023-03-16T09:53:29.756Z,99041.53
2023-03-16T09:56:04.477Z,99028.03
2023-03-16T09:58:33.023Z,99035.00
2023-03-16T10:04:13.211Z,99025.91
2023-03-16T10:07:12.644Z,99020.03
2023-03-16T10:09:59.001Z,99018.44
2023-03-16T10:12:32.801Z,99021.72
2023-03-16T10:15:09.362Z,99030.34
2023-03-16T10:17:38.888Z,99010.53
2023-03-16T10:20:11.197Z,99013.81
2023-03-16T10:22:42.919Z,99021.31
2023-03-16T10:27:53.032Z,99022.94
2023-03-16T10:30:31.172Z,99020.22
2023-03-16T10:33:05.470Z,99007.09
2023-03-16T10:38:48.353Z,99013.66
2023-03-16T10:44:17.234Z,98982.84
2023-03-16T10:46:48.972Z,98983.75
2023-03-16T10:49:27.299Z,98982.97
2023-03-16T10:51:57.186Z,98976.03
2023-03-16T10:54:35.592Z,98968.25
2023-03-16T10:57:27.030Z,98963.69
2023-03-16T10:59:56.765Z,98961.69
2023-03-16T11:02:30.732Z,98962.47
2023-03-16T11:04:57.829Z,98961.50
2023-03-16T11:07:25.557Z,98962.19
2023-03-16T11:09:52.833Z,98974.22
2023-03-16T11:15:25.232Z,98987.53
2023-03-16T11:17:53.597Z,98978.06
2023-03-16T11:20:26.422Z,98972.97
2023-03-16T11:22:53.065Z,98976.31
2023-03-16T11:25:29.170Z,98973.81
2023-03-16T11:30:49.668Z,98978.09
2023-03-16T11:33:16.496Z,98968.69
2023-03-16T11:47:19.716Z,98956.97
2023-03-16T11:49:57.286Z,98954.38
2023-03-16T11:52:49.734Z,98947.50
2023-03-16T12:07:04.857Z,98951.38
2023-03-16T12:10:03.204Z,98950.34
2023-03-16T12:15:39.503Z,98949.81
2023-03-16T12:20:58.767Z,98952.19
2023-03-16T12:23:38.294Z,98949.59
2023-03-16T12:26:05.272Z,98942.41
2023-03-16T12:28:33.486Z,98942.97
2023-03-16T12:31:23.935Z,98934.03
2023-03-16T12:34:16.484Z,98939.72
2023-03-16T12:47:32.007Z,98942.72
2023-03-16T12:50:08.685Z,98940.00
2023-03-16T12:58:12.585Z,98932.03
2023-03-16T13:00:45.068Z,98938.72
2023-03-16T13:03:20.051Z,98943.81
2023-03-16T13:05:53.190Z,98931.75
2023-03-16T13:08:21.456Z,98931.13
2023-03-16T13:11:10.205Z,98908.91
2023-03-16T13:16:31.783Z,98909.72
2023-03-16T13:18:59.436Z,98900.91
2023-03-16T13:21:42.736Z,98908.53
2023-03-16T13:24:29.624Z,98905.72
2023-03-16T13:27:04.497Z,98898.13
2023-03-16T13:29:32.835Z,98901.34
2023-03-16T13:32:02.879Z,98901.53
2023-03-16T13:34:32.757Z,98909.47
2023-03-16T13:37:01.571Z,98900.00
2023-03-16T13:39:30.288Z,98893.13
2023-03-16T13:44:33.186Z,98896.81
2023-03-16T13:47:05.223Z,98904.09
2023-03-16T13:49:31.774Z,98902.47
2023-03-16T13:51:58.866Z,98907.50
2023-03-16T13:54:28.370Z,98910.88
2023-03-16T13:56:59.695Z,98900.69
2023-03-16T13:59:26.652Z,98903.03
2023-03-16T14:01:59.649Z,98891.91
2023-03-16T14:04:29.802Z,98900.50
2023-03-16T14:07:00.805Z,98892.66
2023-03-16T14:09:31.919Z,98903.03
2023-03-16T14:11:59.051Z,98896.97
2023-03-16T14:17:16.085Z,98894.69
2023-03-16T14:19:48.061Z,98901.63
2023-03-16T14:22:19.019Z,98895.75
2023-03-16T14:24:52.268Z,98894.16
2023-03-16T14:30:02.490Z,98892.56
2023-03-16T14:32:31.995Z,98882.34
2023-03-16T14:35:10.134Z,98877.25
2023-03-16T14:37:37.656Z,98882.53
2023-03-16T14:40:08.681Z,98872.06
2023-03-16T14:42:35.604Z,98866.03
2023-03-16T14:45:09.835Z,98860.16
2023-03-16T14:47:41.938Z,98862.75
2023-03-16T14:50:15.322Z,98879.03
2023-03-16T14:52:42.008Z,98879.03
2023-03-16T14:55:13.060Z,98876.44
2023-03-16T14:57:41.813Z,98886.78
2023-03-16T15:00:12.071Z,98892.84
2023-03-16T15:02:41.469Z,98878.09
2023-03-16T15:05:09.870Z,98873.75
2023-03-16T15:07:40.776Z,98867.84
2023-03-16T15:10:22.002Z,98864.47
2023-03-16T15:12:54.665Z,98865.44
2023-03-16T15:15:23.663Z,98874.13
2023-03-16T15:17:52.419Z,98864.69
2023-03-16T15:20:24.260Z,98867.31
2023-03-16T15:22:52.999Z,98856.94
2023-03-16T15:27:59.699Z,98834.63
2023-03-16T15:30:28.709Z,98841.53
2023-03-16T15:32:55.558Z,98839.00
2023-03-16T15:35:22.298Z,98849.41
2023-03-16T15:37:49.008Z,98857.25
2023-03-16T15:42:53.373Z,98846.63
2023-03-16T15:45:22.491Z,98849.19
2023-03-16T15:47:51.818Z,98847.41
2023-03-16T15:50:21.800Z,98849.16
2023-03-16T15:52:54.164Z,98853.44
2023-03-16T15:55:24.310Z,98848.22
2023-03-16T15:57:58.764Z,98854.28
2023-03-16T16:03:07.342Z,98841.16
2023-03-16T16:05:34.052Z,98839.53
2023-03-16T16:08:00.772Z,98836.13
2023-03-16T16:10:28.691Z,98834.44
2023-03-16T16:12:56.979Z,98835.25
2023-03-16T16:15:33.757Z,98825.09
2023-03-16T16:18:20.544Z,98824.34
2023-03-16T16:20:48.356Z,98832.22
2023-03-16T16:23:15.140Z,98828.78
2023-03-16T16:25:42.288Z,98826.22
2023-03-16T16:28:16.898Z,98828.09
2023-03-16T16:30:43.996Z,98812.59
2023-03-16T16:33:22.455Z,98814.53
2023-03-16T16:35:49.088Z,98814.69
2023-03-16T16:38:15.668Z,98806.03
2023-03-16T16:40:46.015Z,98797.41
2023-03-16T16:43:37.727Z,98801.91
2023-03-16T16:46:11.262Z,98799.31
2023-03-16T16:48:39.572Z,98789.03
2023-03-16T16:51:14.383Z,98798.47
2023-03-16T16:53:41.636Z,98797.69
2023-03-16T16:56:13.669Z,98798.63
2023-03-16T16:58:40.726Z,98795.19
2023-03-16T17:01:15.826Z,98800.47
2023-03-16T17:03:42.983Z,98799.69
2023-03-16T17:06:16.960Z,98793.72
2023-03-16T17:08:45.315Z,98796.38
2023-03-16T17:11:22.990Z,98794.66
2023-03-16T17:13:52.746Z,98797.31
2023-03-16T17:16:21.419Z,98794.84
2023-03-16T17:18:49.559Z,98789.72
2023-03-16T17:21:19.735Z,98807.81
2023-03-16T17:23:48.960Z,98806.09
2023-03-16T17:26:19.190Z,98800.16
2023-03-16T17:28:52.290Z,98804.41
2023-03-16T17:31:23.905Z,98804.47
2023-03-16T17:33:52.671Z,98801.84
2023-03-16T17:36:20.946Z,98799.25
2023-03-16T17:38:47.772Z,98803.59
2023-03-16T17:41:22.714Z,98811.38
2023-03-16T17:43:51.790Z,98821.00
2023-03-16T17:46:21.200Z,98822.72
2023-03-16T17:48:48.751Z,98822.81
2023-03-16T17:51:16.595Z,98814.97
2023-03-16T17:53:44.219Z,98813.38
2023-03-16T17:58:57.395Z,98814.94
2023-03-16T18:01:29.958Z,98815.66
2023-03-16T18:03:57.652Z,98812.44
2023-03-16T18:06:29.761Z,98817.69
2023-03-16T18:08:57.258Z,98818.75
2023-03-16T18:11:35.459Z,98815.50
2023-03-16T18:14:04.070Z,98814.69
2023-03-16T18:16:31.469Z,98813.06
2023-03-16T18:19:04.022Z,98809.69
2023-03-16T18:21:31.439Z,98811.53
2023-03-16T18:23:58.022Z,98811.63
2023-03-16T18:26:24.646Z,98810.72
2023-03-16T18:28:53.495Z,98803.97
2023-03-16T18:31:24.044Z,98803.19
2023-03-16T18:33:53.931Z,98801.53
2023-03-16T18:36:26.630Z,98805.91
2023-03-16T18:38:54.399Z,98813.78
2023-03-16T18:43:59.711Z,98813.84
2023-03-16T18:49:14.355Z,98805.41
2023-03-16T18:51:43.125Z,98805.34
2023-03-16T18:54:21.014Z,98808.91
2023-03-16T18:56:48.557Z,98804.59
2023-03-16T18:59:15.565Z,98805.47
2023-03-16T19:01:44.216Z,98809.91
2023-03-16T19:04:30.053Z,98797.22
2023-03-16T19:06:57.641Z,98798.75
2023-03-16T19:09:28.747Z,98798.88
2023-03-16T19:11:55.374Z,98798.75
2023-03-16T19:17:01.268Z,98791.03
2023-03-16T19:19:27.900Z,98791.09
2023-03-16T19:22:01.301Z,98788.47
2023-03-16T19:24:31.721Z,98783.34
2023-03-16T19:26:58.677Z,98788.53
2023-03-16T19:29:33.277Z,98790.47
2023-03-16T19:32:00.820Z,98779.88
2023-03-16T19:34:28.337Z,98781.75
2023-03-16T19:36:54.930Z,98782.53
2023-03-16T19:39:21.568Z,98782.44
2023-03-16T19:41:56.465Z,98783.38
2023-03-16T19:44:25.897Z,98789.47
2023-03-16T19:46:52.891Z,98790.25
2023-03-16T19:49:22.817Z,98793.63
2023-03-16T19:51:51.412Z,98786.69
2023-03-16T19:54:31.575Z,98791.03
2023-03-16T19:57:02.080Z,98788.38
2023-03-16T19:59:33.525Z,98778.13
2023-03-16T20:02:00.909Z,98769.59
2023-03-16T20:04:28.058Z,98773.16
2023-03-16T20:06:54.683Z,98774.88
2023-03-16T20:09:22.534Z,98781.69
2023-03-16T20:11:49.757Z,98780.03
2023-03-16T20:14:20.819Z,98789.50
2023-03-16T20:16:48.261Z,98786.91
2023-03-16T20:19:15.989Z,98786.91
2023-03-16T20:21:43.107Z,98793.88
2023-03-16T20:24:16.285Z,98785.28
2023-03-16T20:26:44.164Z,98788.75
2023-03-16T20:29:32.269Z,98787.06
2023-03-16T20:31:59.827Z,98789.59
2023-03-16T20:34:29.795Z,98781.81
2023-03-16T20:36:57.828Z,98789.66
2023-03-16T20:39:24.447Z,98789.66
2023-03-16T20:41:52.111Z,98788.84
2023-03-16T20:44:20.837Z,98781.03
2023-03-16T20:46:47.762Z,98790.53
2023-03-16T20:51:59.333Z,98792.22
2023-03-16T20:54:25.950Z,98781.94
2023-03-16T20:56:52.585Z,98781.03
2023-03-16T20:59:23.874Z,98779.25
2023-03-16T21:01:51.877Z,98786.22
2023-03-16T21:04:22.539Z,98771.50
2023-03-16T21:06:50.972Z,98774.06
2023-03-16T21:09:18.586Z,98772.28
2023-03-16T21:11:46.116Z,98769.75
2023-03-16T21:14:17.071Z,98766.31
2023-03-16T21:16:44.716Z,98764.50
2023-03-16T21:19:17.129Z,98768.78
2023-03-16T21:21:43.854Z,98775.69
2023-03-16T21:24:10.447Z,98778.25
2023-03-16T21:26:37.488Z,98781.75
2023-03-16T21:29:08.317Z,98777.41
2023-03-16T21:31:35.019Z,98779.16
2023-03-16T21:34:01.926Z,98779.94
2023-03-16T21:36:28.656Z,98771.31
2023-03-16T21:38:57.146Z,98771.44
2023-03-16T21:41:23.796Z,98773.16
2023-03-16T21:43:51.059Z,98772.22
2023-03-16T21:48:55.748Z,98768.72
2023-03-16T21:51:28.500Z,98772.78
2023-03-16T21:53:55.190Z,98774.63
2023-03-16T21:56:25.389Z,98778.25
2023-03-16T21:58:53.391Z,98785.31
2023-03-16T22:04:05.947Z,98786.84
2023-03-16T22:06:32.865Z,98783.44
2023-03-16T22:08:59.902Z,98789.53
2023-03-16T22:11:29.790Z,98788.84
2023-03-16T22:13:57.860Z,98786.16
2023-03-16T22:16:28.055Z,98783.56
2023-03-16T22:18:57.986Z,98791.41
2023-03-16T22:21:34.365Z,98787.97
2023-03-16T22:24:02.243Z,98788.84
2023-03-16T22:26:29.744Z,98790.53
2023-03-16T22:28:57.020Z,98797.47
2023-03-16T22:31:32.871Z,98794.88
2023-03-16T22:34:00.789Z,98800.97
2023-03-16T22:36:27.903Z,98805.22
2023-03-16T22:39:12.253Z,98803.56
2023-03-16T22:41:38.883Z,98801.81
2023-03-16T22:44:05.639Z,98807.84
2023-03-16T22:46:32.202Z,98802.75
2023-03-16T22:48:58.741Z,98807.00
2023-03-16T22:54:05.959Z,98800.91
2023-03-16T22:56:34.883Z,98795.72
2023-03-16T22:59:06.096Z,98805.19
2023-03-16T23:01:37.611Z,98809.47
2023-03-16T23:04:13.655Z,98812.91
2023-03-16T23:06:40.267Z,98816.38
2023-03-16T23:09:06.844Z,98812.84
2023-03-16T23:11:35.945Z,98811.13
2023-03-16T23:14:02.953Z,98803.28
2023-03-16T23:16:34.531Z,98800.66
2023-03-16T23:19:01.718Z,98804.97
2023-03-16T23:21:29.838Z,98796.34
2023-03-16T23:24:03.867Z,98799.78
2023-03-16T23:26:32.024Z,98798.88
2023-03-16T23:28:59.767Z,98798.84
2023-03-16T23:31:27.680Z,98791.06
2023-03-16T23:33:54.377Z,98785.00
2023-03-16T23:36:24.627Z,98774.63
2023-03-16T23:38:51.766Z,98776.41
2023-03-16T23:41:22.378Z,98772.94
2023-03-16T23:43:50.745Z,98778.19
2023-03-16T23:46:21.471Z,98779.94
2023-03-16T23:48:49.296Z,98781.75
2023-03-16T23:51:27.309Z,98780.94
2023-03-16T23:53:54.092Z,98780.13
2023-03-16T23:56:22.193Z,98787.00
2023-03-16T23:58:49.531Z,98784.44
